createdAt,value
2018-07-01T00:01:47.539Z,100904.00
2018-07-01T00:04:17.627Z,100896.00
2018-07-01T00:06:47.584Z,100901.00
2018-07-01T00:09:17.730Z,100900.00
2018-07-01T00:11:47.949Z,100903.00
2018-07-01T00:14:18.158Z,100894.00
2018-07-01T00:16:47.999Z,100898.00
2018-07-01T00:19:18.111Z,100898.00
2018-07-01T00:21:47.710Z,100889.00
2018-07-01T00:24:18.014Z,100892.00
2018-07-01T00:26:48.226Z,100898.00
2018-07-01T00:29:18.446Z,100894.00
2018-07-01T00:31:48.606Z,100895.00
2018-07-01T00:34:18.568Z,100899.00
2018-07-01T00:36:49.086Z,100897.00
2018-07-01T00:39:19.099Z,100896.00
2018-07-01T00:41:49.460Z,100901.00
2018-07-01T00:44:19.464Z,100902.00
2018-07-01T00:46:49.755Z,100893.00
2018-07-01T00:49:19.821Z,100898.00
2018-07-01T00:51:50.149Z,100900.00
2018-07-01T00:54:20.375Z,100901.00
2018-07-01T00:56:50.820Z,100900.00
2018-07-01T00:59:20.971Z,100899.00
2018-07-01T01:01:50.872Z,100900.00
2018-07-01T01:04:20.949Z,100901.00
2018-07-01T01:06:51.219Z,100900.00
2018-07-01T01:09:21.136Z,100903.00
2018-07-01T01:11:51.639Z,100900.00
2018-07-01T01:14:22.529Z,100904.00
2018-07-01T01:16:53.740Z,100904.00
2018-07-01T01:19:24.506Z,100907.00
2018-07-01T01:21:55.750Z,100905.00
2018-07-01T01:24:26.734Z,100900.00
2018-07-01T01:26:57.830Z,100902.00
2018-07-01T01:29:28.904Z,100899.00
2018-07-01T01:32:00.043Z,100904.00
2018-07-01T01:34:31.160Z,100908.00
2018-07-01T01:40:36.384Z,100911.00
2018-07-01T01:43:11.291Z,100910.00
2018-07-01T01:45:47.595Z,100912.00
2018-07-01T01:48:22.902Z,100914.00
2018-07-01T01:51:02.535Z,100911.00
2018-07-01T01:53:37.935Z,100915.00
2018-07-01T01:56:16.051Z,100917.00
2018-07-01T02:00:53.844Z,100919.00
2018-07-01T02:03:32.459Z,100918.00
2018-07-01T02:06:07.141Z,100915.00
2018-07-01T02:08:40.525Z,100918.00
2018-07-01T02:11:10.724Z,100917.00
2018-07-01T02:13:43.686Z,100922.00
2018-07-01T02:16:20.173Z,100920.00
2018-07-01T02:18:50.149Z,100920.00
2018-07-01T02:21:20.233Z,100923.00
2018-07-01T02:23:53.286Z,100931.00
2018-07-01T02:26:23.309Z,100924.00
2018-07-01T02:28:53.574Z,100923.00
2018-07-01T02:31:23.975Z,100925.00
2018-07-01T02:33:54.540Z,100928.00
2018-07-01T02:36:25.055Z,100931.00
2018-07-01T02:38:55.286Z,100933.00
2018-07-01T02:41:25.448Z,100937.00
2018-07-01T02:43:55.826Z,100931.00
2018-07-01T02:46:25.920Z,100932.00
2018-07-01T02:48:56.090Z,100931.00
2018-07-01T02:51:26.264Z,100933.00
2018-07-01T02:53:56.322Z,100935.00
2018-07-01T02:56:26.409Z,100933.00
2018-07-01T02:58:56.739Z,100932.00
2018-07-01T03:01:27.069Z,100939.00
2018-07-01T03:03:57.014Z,100940.00
2018-07-01T03:06:27.090Z,100939.00
2018-07-01T03:08:57.544Z,100945.00
2018-07-01T03:11:27.167Z,100946.00
2018-07-01T03:13:57.190Z,100943.00
2018-07-01T03:16:27.325Z,100948.00
2018-07-01T03:18:57.509Z,100947.00
2018-07-01T03:21:27.189Z,100955.00
2018-07-01T03:23:57.430Z,100956.00
2018-07-01T03:26:27.499Z,100951.00
2018-07-01T03:28:57.558Z,100960.00
2018-07-01T03:31:27.561Z,100962.00
2018-07-01T03:33:57.639Z,100962.00
2018-07-01T03:36:27.877Z,100962.00
2018-07-01T03:38:58.216Z,100966.00
2018-07-01T03:41:28.182Z,100971.00
2018-07-01T03:43:58.420Z,100966.00
2018-07-01T03:46:28.696Z,100969.00
2018-07-01T03:48:58.780Z,100969.00
2018-07-01T03:51:29.009Z,100975.00
2018-07-01T03:53:58.979Z,100974.00
2018-07-01T03:56:29.541Z,100978.00
2018-07-01T03:59:00.709Z,100975.00
2018-07-01T04:01:31.686Z,100976.00
2018-07-01T04:04:01.942Z,100979.00
2018-07-01T04:06:32.236Z,100980.00
2018-07-01T04:09:02.459Z,100979.00
2018-07-01T04:11:32.729Z,100983.00
2018-07-01T04:14:02.729Z,100983.00
2018-07-01T04:16:32.884Z,100983.00
2018-07-01T04:19:03.134Z,100980.00
2018-07-01T04:21:33.366Z,100980.00
2018-07-01T04:24:03.553Z,100980.00
2018-07-01T04:26:33.824Z,100983.00
2018-07-01T04:29:03.926Z,100981.00
2018-07-01T04:31:34.193Z,100977.00
2018-07-01T04:34:04.287Z,100982.00
2018-07-01T04:36:34.355Z,100990.00
2018-07-01T04:39:06.094Z,100991.00
2018-07-01T04:41:36.035Z,100989.00
2018-07-01T04:44:06.070Z,100994.00
2018-07-01T04:46:36.442Z,100991.00
2018-07-01T04:49:06.525Z,100995.00
2018-07-01T04:51:36.790Z,100995.00
2018-07-01T04:54:06.919Z,100997.00
2018-07-01T04:56:36.991Z,100999.00
2018-07-01T04:59:07.319Z,101001.00
2018-07-01T05:01:37.436Z,101005.00
2018-07-01T05:04:07.741Z,101004.00
2018-07-01T05:06:38.005Z,101001.00
2018-07-01T05:09:12.856Z,101007.00
2018-07-01T05:11:44.095Z,101008.00
2018-07-01T05:14:14.260Z,101008.00
2018-07-01T05:16:44.515Z,101016.00
2018-07-01T05:19:14.717Z,101008.00
2018-07-01T05:21:44.189Z,101016.00
2018-07-01T05:24:14.225Z,101017.00
2018-07-01T05:26:44.356Z,101011.00
2018-07-01T05:29:14.547Z,101021.00
2018-07-01T05:31:44.656Z,101022.00
2018-07-01T05:34:14.544Z,101014.00
2018-07-01T05:36:45.252Z,101015.00
2018-07-01T05:39:16.288Z,101014.00
2018-07-01T05:50:32.751Z,101014.00
2018-07-01T05:53:02.987Z,101016.00
2018-07-01T05:55:33.263Z,101019.00
2018-07-01T05:58:03.278Z,101025.00
2018-07-01T06:00:34.192Z,101024.00
2018-07-01T06:03:04.343Z,101026.00
2018-07-01T06:05:34.372Z,101022.00
2018-07-01T06:08:04.417Z,101020.00
2018-07-01T06:10:34.800Z,101018.00
2018-07-01T06:13:05.116Z,101021.00
2018-07-01T06:15:35.401Z,101023.00
2018-07-01T06:18:05.604Z,101022.00
2018-07-01T06:20:35.773Z,101023.00
2018-07-01T06:23:05.955Z,101022.00
2018-07-01T06:25:35.997Z,101021.00
2018-07-01T06:28:07.005Z,101019.00
2018-07-01T06:30:39.197Z,101016.00
2018-07-01T06:33:09.293Z,101018.00
2018-07-01T06:35:39.611Z,101024.00
2018-07-01T06:38:10.673Z,101022.00
2018-07-01T06:40:41.951Z,101026.00
2018-07-01T06:43:12.762Z,101012.00
2018-07-01T06:45:42.971Z,101012.00
2018-07-01T06:48:14.417Z,101014.00
2018-07-01T06:50:44.868Z,101013.00
2018-07-01T06:53:14.962Z,101017.00
2018-07-01T06:55:45.087Z,101010.00
2018-07-01T06:58:15.443Z,101007.00
2018-07-01T07:00:45.905Z,100998.00
2018-07-01T07:03:16.068Z,100996.00
2018-07-01T07:05:46.466Z,101003.00
2018-07-01T07:08:16.552Z,101001.00
2018-07-01T07:10:46.789Z,101000.00
2018-07-01T07:13:16.771Z,100991.00
2018-07-01T07:15:46.901Z,100994.00
2018-07-01T07:18:17.784Z,100996.00
2018-07-01T07:20:48.098Z,100996.00
2018-07-01T07:23:18.346Z,100999.00
2018-07-01T07:25:48.511Z,101001.00
2018-07-01T07:28:18.727Z,101011.00
2018-07-01T07:30:48.835Z,101009.00
2018-07-01T07:33:19.061Z,101012.00
2018-07-01T07:35:49.224Z,101014.00
2018-07-01T07:38:19.513Z,101007.00
2018-07-01T07:40:49.400Z,101009.00
2018-07-01T07:43:19.906Z,101019.00
2018-07-01T07:45:49.984Z,101013.00
2018-07-01T07:48:20.171Z,101017.00
2018-07-01T07:50:50.586Z,101015.00
2018-07-01T07:53:20.773Z,101012.00
2018-07-01T07:55:51.043Z,101009.00
2018-07-01T07:58:21.116Z,101013.00
2018-07-01T08:00:51.193Z,101005.00
2018-07-01T08:03:22.160Z,101004.00
2018-07-01T08:05:52.408Z,100998.00
2018-07-01T08:08:22.891Z,101002.00
2018-07-01T08:10:53.897Z,101001.00
2018-07-01T08:13:24.931Z,101003.00
2018-07-01T08:15:54.941Z,101005.00
2018-07-01T08:18:24.991Z,101000.00
2018-07-01T08:20:54.986Z,100998.00
2018-07-01T08:23:24.803Z,101007.00
2018-07-01T08:25:54.935Z,101010.00
2018-07-01T08:28:25.182Z,101003.00
2018-07-01T08:30:55.081Z,101007.00
2018-07-01T08:33:25.667Z,101007.00
2018-07-01T08:35:55.855Z,101007.00
2018-07-01T08:38:26.037Z,101006.00
2018-07-01T08:40:56.351Z,101010.00
2018-07-01T08:43:26.412Z,101003.00
2018-07-01T08:45:56.568Z,101013.00
2018-07-01T08:48:26.667Z,101004.00
2018-07-01T08:50:57.049Z,101005.00
2018-07-01T08:53:27.221Z,100996.00
2018-07-01T08:55:57.705Z,101002.00
2018-07-01T08:58:27.815Z,100999.00
2018-07-01T09:00:58.090Z,101005.00
2018-07-01T09:03:28.251Z,100998.00
2018-07-01T09:05:58.742Z,100994.00
2018-07-01T09:08:29.061Z,100995.00
2018-07-01T09:10:59.411Z,100989.00
2018-07-01T09:13:29.727Z,100996.00
2018-07-01T09:15:59.913Z,100994.00
2018-07-01T09:18:30.037Z,100996.00
2018-07-01T09:21:00.444Z,100991.00
2018-07-01T09:23:30.786Z,100995.00
2018-07-01T09:26:00.974Z,100995.00
2018-07-01T09:28:30.967Z,101001.00
2018-07-01T09:31:00.992Z,101003.00
2018-07-01T09:33:31.397Z,100991.00
2018-07-01T09:36:02.576Z,100996.00
2018-07-01T09:38:33.618Z,100996.00
2018-07-01T09:41:04.111Z,100995.00
2018-07-01T09:50:32.646Z,101001.00
2018-07-01T09:53:02.749Z,100994.00
2018-07-01T09:55:32.822Z,100979.00
2018-07-01T09:58:03.234Z,100988.00
2018-07-01T10:00:33.644Z,100988.00
2018-07-01T10:03:03.713Z,100991.00
2018-07-01T10:05:33.994Z,100986.00
2018-07-01T10:08:04.046Z,100991.00
2018-07-01T10:10:34.212Z,100991.00
2018-07-01T10:13:04.447Z,100979.00
2018-07-01T10:15:35.277Z,100981.00
2018-07-01T10:18:05.788Z,100979.00
2018-07-01T10:20:36.089Z,100976.00
2018-07-01T10:23:06.384Z,100979.00
2018-07-01T10:25:36.722Z,100973.00
2018-07-01T10:28:07.267Z,100967.00
2018-07-01T10:30:37.636Z,100967.00
2018-07-01T10:33:07.972Z,100969.00
2018-07-01T10:35:38.179Z,100963.00
2018-07-01T10:38:08.238Z,100961.00
2018-07-01T10:40:38.744Z,100966.00
2018-07-01T10:43:09.547Z,100970.00
2018-07-01T10:45:39.956Z,100969.00
2018-07-01T10:48:10.317Z,100964.00
2018-07-01T10:50:40.921Z,100966.00
2018-07-01T10:53:11.196Z,100959.00
2018-07-01T10:55:41.304Z,100960.00
2018-07-01T10:58:11.526Z,100963.00
2018-07-01T11:00:42.813Z,100968.00
2018-07-01T11:03:13.879Z,100964.00
2018-07-01T11:05:46.921Z,100954.00
2018-07-01T11:08:17.112Z,100954.00
2018-07-01T11:10:47.521Z,100948.00
2018-07-01T11:13:18.503Z,100955.00
2018-07-01T11:15:49.403Z,100952.00
2018-07-01T11:18:19.369Z,100945.00
2018-07-01T11:20:49.881Z,100947.00
2018-07-01T11:23:20.737Z,100947.00
2018-07-01T11:25:50.961Z,100937.00
2018-07-01T11:28:21.800Z,100947.00
2018-07-01T11:30:52.329Z,100941.00
2018-07-01T11:33:22.533Z,100940.00
2018-07-01T11:35:52.901Z,100932.00
2018-07-01T11:38:23.543Z,100940.00
2018-07-01T11:40:53.719Z,100932.00
2018-07-01T11:43:23.970Z,100935.00
2018-07-01T11:45:53.908Z,100933.00
2018-07-01T11:48:24.267Z,100928.00
2018-07-01T11:50:54.482Z,100923.00
2018-07-01T11:53:24.722Z,100923.00
2018-07-01T11:55:54.972Z,100920.00
2018-07-01T11:58:25.361Z,100929.00
2018-07-01T12:00:55.521Z,100909.00
2018-07-01T12:03:26.287Z,100915.00
2018-07-01T12:05:56.766Z,100913.00
2018-07-01T12:08:26.789Z,100914.00
2018-07-01T12:10:57.094Z,100921.00
2018-07-01T12:13:27.522Z,100918.00
2018-07-01T12:15:57.888Z,100906.00
2018-07-01T12:18:28.193Z,100904.00
2018-07-01T12:20:58.217Z,100908.00
2018-07-01T12:23:28.704Z,100915.00
2018-07-01T12:25:59.051Z,100905.00
2018-07-01T12:28:28.753Z,100895.00
2018-07-01T12:30:58.881Z,100892.00
2018-07-01T12:33:28.903Z,100888.00
2018-07-01T12:35:59.994Z,100897.00
2018-07-01T12:38:31.619Z,100902.00
2018-07-01T12:41:02.614Z,100887.00
2018-07-01T12:43:36.918Z,100889.00
2018-07-01T12:46:07.634Z,100888.00
2018-07-01T12:48:37.877Z,100890.00
2018-07-01T12:51:07.974Z,100884.00
2018-07-01T12:53:38.921Z,100873.00
2018-07-01T12:56:09.645Z,100882.00
2018-07-01T12:58:39.681Z,100880.00
2018-07-01T13:01:09.834Z,100873.00
2018-07-01T13:03:39.927Z,100869.00
2018-07-01T13:06:09.964Z,100870.00
2018-07-01T13:08:40.375Z,100868.00
2018-07-01T13:11:10.513Z,100869.00
2018-07-01T13:13:40.714Z,100864.00
2018-07-01T13:16:10.787Z,100869.00
2018-07-01T13:18:41.082Z,100859.00
2018-07-01T13:21:11.332Z,100849.00
2018-07-01T13:23:41.394Z,100837.00
2018-07-01T13:26:11.699Z,100831.00
2018-07-01T13:28:41.843Z,100830.00
2018-07-01T13:31:12.117Z,100832.00
2018-07-01T13:33:42.228Z,100831.00
2018-07-01T13:36:12.458Z,100832.00
2018-07-01T13:38:42.499Z,100841.00
2018-07-01T13:41:12.899Z,100839.00
2018-07-01T13:43:43.093Z,100832.00
2018-07-01T13:46:13.203Z,100838.00
2018-07-01T13:48:43.441Z,100830.00
2018-07-01T13:51:13.823Z,100830.00
2018-07-01T13:53:44.361Z,100825.00
2018-07-01T13:56:14.817Z,100828.00
2018-07-01T13:58:45.244Z,100819.00
2018-07-01T14:01:15.602Z,100819.00
2018-07-01T14:03:46.010Z,100812.00
2018-07-01T14:06:15.902Z,100813.00
2018-07-01T14:08:46.722Z,100807.00
2018-07-01T14:11:17.577Z,100802.00
2018-07-01T14:13:47.877Z,100802.00
2018-07-01T14:16:17.853Z,100799.00
2018-07-01T14:18:47.806Z,100795.00
2018-07-01T14:21:17.821Z,100800.00
2018-07-01T14:30:33.036Z,100800.00
2018-07-01T14:33:03.251Z,100789.00
2018-07-01T14:35:33.397Z,100786.00
2018-07-01T14:38:03.832Z,100791.00
2018-07-01T14:40:34.124Z,100787.00
2018-07-01T14:43:04.301Z,100782.00
2018-07-01T14:45:34.789Z,100780.00
2018-07-01T14:48:05.319Z,100775.00
2018-07-01T14:50:35.429Z,100769.00
2018-07-01T14:53:05.705Z,100765.00
2018-07-01T14:55:35.728Z,100768.00
2018-07-01T14:58:06.137Z,100765.00
2018-07-01T15:00:36.154Z,100763.00
2018-07-01T15:03:06.414Z,100758.00
2018-07-01T15:05:36.754Z,100753.00
2018-07-01T15:08:07.888Z,100768.00
2018-07-01T15:10:39.889Z,100764.00
2018-07-01T15:13:10.143Z,100766.00
2018-07-01T15:15:40.898Z,100774.00
2018-07-01T15:18:12.863Z,100769.00
2018-07-01T15:20:43.193Z,100759.00
2018-07-01T15:23:13.828Z,100759.00
2018-07-01T15:25:45.015Z,100768.00
2018-07-01T15:28:16.233Z,100760.00
2018-07-01T15:30:47.370Z,100755.00
2018-07-01T15:33:18.735Z,100756.00
2018-07-01T15:35:49.767Z,100750.00
2018-07-01T15:38:20.706Z,100746.00
2018-07-01T15:40:51.974Z,100738.00
2018-07-01T15:43:22.541Z,100741.00
2018-07-01T15:45:52.938Z,100738.00
2018-07-01T15:48:23.648Z,100730.00
2018-07-01T15:50:53.887Z,100732.00
2018-07-01T15:53:24.053Z,100736.00
2018-07-01T15:55:54.309Z,100720.00
2018-07-01T15:58:24.364Z,100727.00
2018-07-01T16:00:54.419Z,100724.00
2018-07-01T16:03:24.308Z,100730.00
2018-07-01T16:05:54.360Z,100724.00
2018-07-01T16:08:24.655Z,100720.00
2018-07-01T16:10:54.779Z,100724.00
2018-07-01T16:13:25.093Z,100724.00
2018-07-01T16:15:55.665Z,100718.00
2018-07-01T16:18:26.022Z,100718.00
2018-07-01T16:20:56.013Z,100717.00
2018-07-01T16:23:26.448Z,100725.00
2018-07-01T16:26:01.744Z,100716.00
2018-07-01T16:28:37.256Z,100710.00
2018-07-01T16:31:07.735Z,100712.00
2018-07-01T16:33:38.274Z,100711.00
2018-07-01T16:36:09.160Z,100707.00
2018-07-01T16:38:39.753Z,100714.00
2018-07-01T16:41:10.031Z,100705.00
2018-07-01T16:43:40.423Z,100706.00
2018-07-01T16:46:11.041Z,100704.00
2018-07-01T16:48:41.087Z,100708.00
2018-07-01T16:51:11.645Z,100705.00
2018-07-01T16:53:41.950Z,100709.00
2018-07-01T16:56:12.323Z,100713.00
2018-07-01T16:58:42.663Z,100722.00
2018-07-01T17:01:12.970Z,100707.00
2018-07-01T17:03:43.833Z,100715.00
2018-07-01T17:06:15.067Z,100718.00
2018-07-01T17:08:45.347Z,100708.00
2018-07-01T17:11:16.173Z,100715.00
2018-07-01T17:13:46.833Z,100708.00
2018-07-01T17:16:17.244Z,100719.00
2018-07-01T17:18:47.353Z,100719.00
2018-07-01T17:21:17.654Z,100720.00
2018-07-01T17:23:48.128Z,100712.00
2018-07-01T17:26:18.608Z,100714.00
2018-07-01T17:28:49.063Z,100713.00
2018-07-01T17:31:24.386Z,100718.00
2018-07-01T17:33:55.029Z,100720.00
2018-07-01T17:36:25.547Z,100722.00
2018-07-01T17:38:55.971Z,100723.00
2018-07-01T17:41:26.774Z,100714.00
2018-07-01T17:43:57.235Z,100722.00
2018-07-01T17:46:27.594Z,100719.00
2018-07-01T17:49:04.336Z,100721.00
2018-07-01T17:51:34.799Z,100716.00
2018-07-01T17:54:05.439Z,100711.00
2018-07-01T17:56:36.114Z,100718.00
2018-07-01T17:59:06.516Z,100724.00
2018-07-01T18:01:37.134Z,100715.00
2018-07-01T18:04:07.574Z,100727.00
2018-07-01T18:06:38.340Z,100725.00
2018-07-01T18:09:10.104Z,100728.00
2018-07-01T18:11:39.798Z,100731.00
2018-07-01T18:14:09.937Z,100730.00
2018-07-01T18:16:40.362Z,100727.00
2018-07-01T18:19:10.656Z,100723.00
2018-07-01T18:21:44.901Z,100724.00
2018-07-01T18:24:35.129Z,100727.00
2018-07-01T18:26:41.410Z,100730.00
2018-07-01T18:29:16.773Z,100734.00
2018-07-01T18:31:42.797Z,100727.00
2018-07-01T18:34:12.946Z,100724.00
2018-07-01T18:36:42.931Z,100724.00
2018-07-01T18:39:12.965Z,100731.00
2018-07-01T18:41:43.108Z,100731.00
2018-07-01T18:44:13.262Z,100730.00
2018-07-01T18:50:33.063Z,100740.00
2018-07-01T18:53:03.592Z,100741.00
2018-07-01T18:55:34.017Z,100747.00
2018-07-01T18:58:04.606Z,100749.00
2018-07-01T19:00:34.925Z,100755.00
2018-07-01T19:03:05.693Z,100746.00
2018-07-01T19:05:36.052Z,100746.00
2018-07-01T19:08:06.371Z,100747.00
2018-07-01T19:10:37.096Z,100750.00
2018-07-01T19:13:07.533Z,100754.00
2018-07-01T19:15:38.075Z,100752.00
2018-07-01T19:18:08.834Z,100756.00
2018-07-01T19:20:39.407Z,100766.00
2018-07-01T19:23:09.038Z,100757.00
2018-07-01T19:25:39.430Z,100765.00
2018-07-01T19:28:09.578Z,100774.00
2018-07-01T19:30:39.737Z,100773.00
2018-07-01T19:33:10.125Z,100777.00
2018-07-01T19:35:40.424Z,100782.00
2018-07-01T19:38:10.796Z,100781.00
2018-07-01T19:40:41.096Z,100780.00
2018-07-01T19:43:11.957Z,100783.00
2018-07-01T19:45:42.212Z,100787.00
2018-07-01T19:48:12.769Z,100791.00
2018-07-01T19:50:43.432Z,100794.00
2018-07-01T19:53:13.761Z,100792.00
2018-07-01T19:55:44.366Z,100801.00
2018-07-01T19:58:14.762Z,100804.00
2018-07-01T20:00:45.225Z,100807.00
2018-07-01T20:03:15.818Z,100810.00
2018-07-01T20:05:46.473Z,100809.00
2018-07-01T20:08:17.301Z,100803.00
2018-07-01T20:10:48.317Z,100811.00
2018-07-01T20:13:19.095Z,100809.00
2018-07-01T20:15:49.682Z,100807.00
2018-07-01T20:18:20.417Z,100810.00
2018-07-01T20:20:50.448Z,100816.00
2018-07-01T20:23:20.850Z,100820.00
2018-07-01T20:25:51.146Z,100818.00
2018-07-01T20:28:21.929Z,100818.00
2018-07-01T20:30:52.059Z,100825.00
2018-07-01T20:33:22.679Z,100833.00
2018-07-01T20:35:52.795Z,100831.00
2018-07-01T20:38:23.155Z,100830.00
2018-07-01T20:40:53.220Z,100833.00
2018-07-01T20:43:23.216Z,100833.00
2018-07-01T20:45:53.428Z,100837.00
2018-07-01T20:48:23.416Z,100843.00
2018-07-01T20:50:53.757Z,100840.00
2018-07-01T20:53:25.123Z,100833.00
2018-07-01T20:55:56.643Z,100838.00
2018-07-01T20:58:27.307Z,100847.00
2018-07-01T21:00:58.703Z,100842.00
2018-07-01T21:03:29.600Z,100835.00
2018-07-01T21:06:00.835Z,100835.00
2018-07-01T21:08:31.854Z,100841.00
2018-07-01T21:11:03.079Z,100843.00
2018-07-01T21:13:33.770Z,100838.00
2018-07-01T21:16:04.995Z,100845.00
2018-07-01T21:18:35.406Z,100847.00
2018-07-01T21:21:06.239Z,100847.00
2018-07-01T21:23:36.675Z,100850.00
2018-07-01T21:26:07.441Z,100854.00
2018-07-01T21:28:37.794Z,100859.00
2018-07-01T21:31:10.146Z,100861.00
2018-07-01T21:33:40.748Z,100860.00
2018-07-01T21:36:11.041Z,100863.00
2018-07-01T21:38:41.087Z,100870.00
2018-07-01T21:41:11.326Z,100864.00
2018-07-01T21:43:41.982Z,100865.00
2018-07-01T21:46:12.283Z,100868.00
2018-07-01T21:48:43.084Z,100872.00
2018-07-01T21:51:13.759Z,100882.00
2018-07-01T21:53:44.245Z,100878.00
2018-07-01T21:56:14.421Z,100881.00
2018-07-01T21:58:44.580Z,100881.00
2018-07-01T22:01:14.910Z,100880.00
2018-07-01T22:03:51.927Z,100880.00
2018-07-01T22:06:22.037Z,100886.00
2018-07-01T22:08:52.638Z,100888.00
2018-07-01T22:11:52.684Z,100891.00
2018-07-01T22:14:27.740Z,100892.00
2018-07-01T22:16:58.272Z,100894.00
2018-07-01T22:19:28.565Z,100896.00
2018-07-01T22:21:59.541Z,100897.00
2018-07-01T22:24:30.904Z,100899.00
2018-07-01T22:27:01.605Z,100898.00
2018-07-01T22:29:31.955Z,100896.00
2018-07-01T22:32:02.263Z,100895.00
2018-07-01T22:34:32.373Z,100899.00
2018-07-01T22:37:02.572Z,100896.00
2018-07-01T22:39:32.764Z,100899.00
2018-07-01T22:42:03.261Z,100894.00
2018-07-01T22:44:33.455Z,100896.00
2018-07-01T22:47:04.123Z,100899.00
2018-07-01T22:49:34.220Z,100900.00
2018-07-01T22:52:04.679Z,100906.00
2018-07-01T22:54:34.939Z,100906.00
2018-07-01T22:57:05.115Z,100907.00
2018-07-01T22:59:35.269Z,100908.00
2018-07-01T23:03:17.462Z,100906.00
2018-07-01T23:05:47.620Z,100902.00
2018-07-01T23:08:17.965Z,100896.00
2018-07-01T23:10:48.043Z,100898.00
2018-07-01T23:13:18.450Z,100895.00
2018-07-01T23:15:48.574Z,100896.00
2018-07-01T23:18:18.676Z,100896.00
2018-07-01T23:20:48.880Z,100898.00
2018-07-01T23:23:18.976Z,100898.00
2018-07-01T23:25:49.419Z,100896.00
2018-07-01T23:28:19.666Z,100900.00
2018-07-01T23:30:49.659Z,100899.00
2018-07-01T23:33:19.804Z,100905.00
2018-07-01T23:35:50.034Z,100898.00
2018-07-01T23:38:20.166Z,100898.00
2018-07-01T23:40:50.420Z,100894.00
2018-07-01T23:43:20.648Z,100896.00
2018-07-01T23:45:50.885Z,100891.00
2018-07-01T23:48:21.056Z,100892.00
2018-07-01T23:50:51.269Z,100893.00
2018-07-01T23:53:21.309Z,100893.00
2018-07-01T23:55:51.470Z,100890.00
2018-07-01T23:58:21.879Z,100889.00
